Time;durP1;ratioP1;P1;durP2;ratioP2;P2;SDS_P1;SDS_P2;PMS_P1;PMS_P2;Temp;Humidity;BMP_temperature;BMP_pressure;BME280_temperature;BME280_humidity;BME280_pressure;Samples;Min_cycle;Max_cycle;Signal;HPM_P1;HPM_P2
2024/04/02 00:01:54;;;;;;;;;;;7.30;99.90;;;;;;4996497;28;19963;-86
2024/04/02 00:04:19;;;;;;;;;;;7.30;99.90;;;;;;4999066;28;20878;-87
2024/04/02 00:06:45;;;;;;;;;;;7.20;99.90;;;;;;4998054;28;19940;-86
2024/04/02 00:09:11;;;;;;;;;;;7.30;99.90;;;;;;4997734;28;19913;-87
2024/04/02 00:11:36;;;;;;;;;;;7.20;99.90;;;;;;4998412;28;20017;-86
2024/04/02 00:14:02;;;;;;;;;;;7.20;99.90;;;;;;5002852;28;20712;-86
2024/04/02 00:16:27;;;;;;;;;;;7.30;99.90;;;;;;4996971;28;19913;-87
2024/04/02 00:18:53;;;;;;;;;;;7.30;99.90;;;;;;4997138;28;20346;-86
2024/04/02 00:21:19;;;;;;;;;;;7.40;99.90;;;;;;4998990;28;19894;-87
2024/04/02 00:23:45;;;;;;;;;;;7.40;99.90;;;;;;4997693;28;19914;-86
2024/04/02 00:26:11;;;;;;;;;;;7.40;99.90;;;;;;4996135;28;20352;-86
2024/04/02 00:28:37;;;;;;;;;;;7.40;99.90;;;;;;4997991;28;19956;-86
2024/04/02 00:31:02;;;;;;;;;;;7.40;99.90;;;;;;4998201;28;20004;-86
2024/04/02 00:33:29;;;;;;;;;;;7.50;99.90;;;;;;4995327;28;20004;-86
2024/04/02 00:36:04;;;;;;;;;;;7.50;99.90;;;;;;4997853;28;19921;-87
2024/04/02 00:38:30;;;;;;;;;;;7.50;99.90;;;;;;5000692;28;19918;-86
2024/04/02 00:40:56;;;;;;;;;;;7.60;99.90;;;;;;5000539;28;19991;-86
2024/04/02 00:43:22;;;;;;;;;;;7.60;99.90;;;;;;4980789;28;20654;-86
2024/04/02 00:45:48;;;;;;;;;;;7.60;99.90;;;;;;4997928;28;19918;-87
2024/04/02 00:48:14;;;;;;;;;;;7.60;99.90;;;;;;4995981;28;19966;-87
2024/04/02 00:50:40;;;;;;;;;;;7.60;99.90;;;;;;4996997;28;19956;-86
2024/04/02 00:53:05;;;;;;;;;;;7.60;99.90;;;;;;4996601;28;19918;-86
2024/04/02 00:55:31;;;;;;;;;;;7.60;99.90;;;;;;4994918;28;19917;-86
2024/04/02 00:57:57;;;;;;;;;;;7.60;99.90;;;;;;4997432;28;19977;-86
2024/04/02 01:00:22;;;;;;;;;;;7.70;99.90;;;;;;4995520;28;19922;-86
2024/04/02 01:02:48;;;;;;;;;;;7.70;99.90;;;;;;4977729;28;19925;-86
2024/04/02 01:05:14;;;;;;;;;;;7.60;99.90;;;;;;4996236;28;19921;-86
2024/04/02 01:07:40;;;;;;;;;;;7.60;99.90;;;;;;4997362;28;19917;-86
2024/04/02 01:10:06;;;;;;;;;;;7.60;99.90;;;;;;4996039;28;19913;-86
2024/04/02 01:12:32;;;;;;;;;;;7.50;99.90;;;;;;4977070;28;19921;-86
2024/04/02 01:14:57;;;;;;;;;;;7.50;99.90;;;;;;4994605;28;19921;-86
2024/04/02 01:17:23;;;;;;;;;;;7.50;99.90;;;;;;4996499;28;20488;-86
2024/04/02 01:19:48;;;;;;;;;;;7.50;99.90;;;;;;4995877;28;19928;-86
2024/04/02 01:22:14;;;;;;;;;;;7.50;99.90;;;;;;4995301;28;19917;-86
2024/04/02 01:24:44;;;;;;;;;;;7.50;99.90;;;;;;4996273;28;20095;-86
2024/04/02 01:27:09;;;;;;;;;;;7.50;99.90;;;;;;4996184;28;21466;-85
2024/04/02 01:29:35;;;;;;;;;;;7.50;99.90;;;;;;4995888;28;19925;-86
2024/04/02 01:32:00;;;;;;;;;;;7.50;99.90;;;;;;4978282;28;20031;-86
2024/04/02 01:34:25;;;;;;;;;;;7.50;99.90;;;;;;4994455;28;19913;-87
2024/04/02 01:36:51;;;;;;;;;;;7.50;99.90;;;;;;4994877;28;19925;-86
2024/04/02 01:39:18;;;;;;;;;;;7.50;99.90;;;;;;4996590;28;20401;-86
2024/04/02 01:41:43;;;;;;;;;;;7.50;99.90;;;;;;5000971;28;20047;-86
2024/04/02 01:44:09;;;;;;;;;;;7.50;99.90;;;;;;4981895;28;20337;-86
2024/04/02 01:46:34;;;;;;;;;;;7.50;99.90;;;;;;4999118;28;19914;-86
2024/04/02 01:49:00;;;;;;;;;;;7.50;99.90;;;;;;4999216;28;19944;-86
2024/04/02 01:51:27;;;;;;;;;;;7.50;99.90;;;;;;5000337;28;19964;-86
2024/04/02 01:53:53;;;;;;;;;;;7.50;99.90;;;;;;4998570;28;19921;-87
2024/04/02 01:56:18;;;;;;;;;;;7.50;99.90;;;;;;4999403;28;19913;-87
2024/04/02 01:58:43;;;;;;;;;;;7.50;99.90;;;;;;5000172;28;20452;-87
2024/04/02 02:01:09;;;;;;;;;;;7.40;99.90;;;;;;4997514;28;19917;-87
2024/04/02 02:03:35;;;;;;;;;;;7.40;99.90;;;;;;4998519;28;21019;-87
2024/04/02 02:06:00;;;;;;;;;;;7.50;99.90;;;;;;4997113;28;19949;-86
2024/04/02 02:08:26;;;;;;;;;;;7.50;99.90;;;;;;5001819;28;20007;-87
2024/04/02 02:10:55;;;;;;;;;;;7.40;99.90;;;;;;5000252;28;19939;-87
2024/04/02 02:13:20;;;;;;;;;;;7.40;99.90;;;;;;5000216;28;20635;-87
2024/04/02 02:15:56;;;;;;;;;;;7.40;99.90;;;;;;4999807;28;19958;-87
2024/04/02 02:18:21;;;;;;;;;;;7.40;99.90;;;;;;5000343;28;20502;-87
2024/04/02 02:20:46;;;;;;;;;;;7.40;99.90;;;;;;4996647;28;19929;-87
2024/04/02 02:23:13;;;;;;;;;;;7.40;99.90;;;;;;4998407;28;20465;-86
2024/04/02 02:25:40;;;;;;;;;;;7.40;99.90;;;;;;4997360;28;19925;-86
2024/04/02 02:28:06;;;;;;;;;;;7.40;99.90;;;;;;4999200;28;20360;-87
2024/04/02 02:30:31;;;;;;;;;;;7.40;99.90;;;;;;4979813;28;19921;-87
2024/04/02 02:32:57;;;;;;;;;;;7.40;99.90;;;;;;4982685;28;19921;-87
2024/04/02 02:35:22;;;;;;;;;;;7.40;99.90;;;;;;4996969;28;20042;-86
2024/04/02 02:37:47;;;;;;;;;;;7.50;99.90;;;;;;4999548;28;19928;-87
2024/04/02 02:40:13;;;;;;;;;;;7.50;99.90;;;;;;4995528;28;19917;-87
2024/04/02 02:42:38;;;;;;;;;;;7.50;99.90;;;;;;4999371;28;19917;-86
2024/04/02 02:45:04;;;;;;;;;;;7.50;99.90;;;;;;4996472;28;20392;-87
2024/04/02 02:47:30;;;;;;;;;;;7.60;99.90;;;;;;4995142;28;21304;-87
2024/04/02 02:49:55;;;;;;;;;;;7.50;99.90;;;;;;4997248;28;19917;-86
2024/04/02 02:52:20;;;;;;;;;;;7.60;99.90;;;;;;4994532;28;20036;-87
2024/04/02 02:54:46;;;;;;;;;;;7.60;99.90;;;;;;4999933;28;20440;-86
2024/04/02 02:57:11;;;;;;;;;;;7.60;99.90;;;;;;4998838;28;19925;-87
2024/04/02 02:59:37;;;;;;;;;;;7.60;99.90;;;;;;4999308;28;20410;-87
2024/04/02 03:02:02;;;;;;;;;;;7.60;99.90;;;;;;4997062;28;19923;-87
2024/04/02 03:04:28;;;;;;;;;;;7.70;99.90;;;;;;4997703;28;20577;-87
2024/04/02 03:06:53;;;;;;;;;;;7.70;99.90;;;;;;4997095;28;19914;-87
2024/04/02 03:09:19;;;;;;;;;;;7.70;99.90;;;;;;4998920;28;19937;-87
2024/04/02 03:11:45;;;;;;;;;;;7.70;99.90;;;;;;4995754;28;20346;-87
2024/04/02 03:14:10;;;;;;;;;;;7.70;99.90;;;;;;4997629;28;19994;-86
2024/04/02 03:16:36;;;;;;;;;;;7.70;99.90;;;;;;4998760;28;19968;-87
2024/04/02 03:19:01;;;;;;;;;;;7.80;99.90;;;;;;4998092;28;19978;-87
2024/04/02 03:21:27;;;;;;;;;;;7.80;99.90;;;;;;5000035;28;19913;-87
2024/04/02 03:23:54;;;;;;;;;;;7.80;99.90;;;;;;4999685;28;19959;-86
2024/04/02 03:26:20;;;;;;;;;;;7.70;99.90;;;;;;4996560;28;19921;-87
2024/04/02 03:28:46;;;;;;;;;;;7.70;99.90;;;;;;4999451;28;19910;-87
2024/04/02 03:31:11;;;;;;;;;;;7.60;99.90;;;;;;4997977;28;19925;-87
2024/04/02 03:33:36;;;;;;;;;;;7.60;99.90;;;;;;4980729;28;19909;-87
2024/04/02 03:36:05;;;;;;;;;;;7.60;99.90;;;;;;4996305;28;19909;-87
2024/04/02 03:38:34;;;;;;;;;;;7.60;99.90;;;;;;4998781;28;19925;-87
2024/04/02 03:41:10;;;;;;;;;;;7.50;99.90;;;;;;4998577;28;19918;-87
2024/04/02 03:43:36;;;;;;;;;;;7.50;99.90;;;;;;4997849;28;19918;-87
2024/04/02 03:46:02;;;;;;;;;;;7.50;99.90;;;;;;4977789;28;19920;-86
2024/04/02 03:48:27;;;;;;;;;;;7.50;99.90;;;;;;4996723;28;19925;-87
2024/04/02 03:50:52;;;;;;;;;;;7.60;99.90;;;;;;4997574;28;19917;-87
2024/04/02 03:53:18;;;;;;;;;;;7.60;99.90;;;;;;4996579;28;19913;-87
2024/04/02 03:55:43;;;;;;;;;;;7.50;99.90;;;;;;4996964;28;20276;-88
2024/04/02 03:58:09;;;;;;;;;;;7.50;99.90;;;;;;4997244;28;20007;-87
2024/04/02 04:00:34;;;;;;;;;;;7.40;99.90;;;;;;4996930;28;19928;-87
2024/04/02 04:03:00;;;;;;;;;;;7.40;99.90;;;;;;5001708;28;19917;-87
2024/04/02 04:05:25;;;;;;;;;;;7.40;99.90;;;;;;5001301;28;19922;-87
2024/04/02 04:07:51;;;;;;;;;;;7.40;99.90;;;;;;5000209;28;20676;-88
2024/04/02 04:10:20;;;;;;;;;;;7.30;99.90;;;;;;4996487;28;19917;-87
2024/04/02 04:12:46;;;;;;;;;;;7.30;99.90;;;;;;4998325;28;19917;-88
2024/04/02 04:15:11;;;;;;;;;;;7.30;99.90;;;;;;4981605;28;19924;-88
2024/04/02 04:17:37;;;;;;;;;;;7.30;99.90;;;;;;4981867;28;20013;-87
2024/04/02 04:20:02;;;;;;;;;;;7.20;99.90;;;;;;4996573;28;19917;-85
2024/04/02 04:22:28;;;;;;;;;;;7.20;99.90;;;;;;4995912;28;20354;-86
2024/04/02 04:24:57;;;;;;;;;;;7.20;99.90;;;;;;4997558;28;20337;-86
2024/04/02 04:27:32;;;;;;;;;;;7.20;99.90;;;;;;4993455;28;20106;-88
2024/04/02 04:29:58;;;;;;;;;;;7.20;99.90;;;;;;4996880;28;19913;-87
2024/04/02 04:32:24;;;;;;;;;;;7.30;99.90;;;;;;4997013;28;19917;-87
2024/04/02 04:34:49;;;;;;;;;;;7.20;99.90;;;;;;4996575;28;19923;-87
2024/04/02 04:37:15;;;;;;;;;;;7.30;99.90;;;;;;4995745;28;20294;-87
2024/04/02 04:39:40;;;;;;;;;;;7.30;99.90;;;;;;4996572;28;19952;-88
2024/04/02 04:42:06;;;;;;;;;;;7.30;99.90;;;;;;4995964;28;19910;-87
2024/04/02 04:44:31;;;;;;;;;;;7.30;99.90;;;;;;4995464;28;21357;-87
2024/04/02 04:46:57;;;;;;;;;;;7.30;99.90;;;;;;4995642;28;19969;-87
2024/04/02 04:49:22;;;;;;;;;;;7.30;99.90;;;;;;4996477;28;19917;-87
2024/04/02 04:51:48;;;;;;;;;;;7.30;99.90;;;;;;4996638;28;19913;-87
2024/04/02 04:54:13;;;;;;;;;;;7.30;99.90;;;;;;4996966;28;19928;-87
2024/04/02 04:56:38;;;;;;;;;;;7.30;99.90;;;;;;4994639;28;19913;-85
2024/04/02 04:59:04;;;;;;;;;;;7.40;99.90;;;;;;4993076;28;19917;-86
2024/04/02 05:01:29;;;;;;;;;;;7.40;99.90;;;;;;4994509;28;20000;-85
2024/04/02 05:03:55;;;;;;;;;;;7.40;99.90;;;;;;4995232;28;19921;-85
2024/04/02 05:06:21;;;;;;;;;;;7.40;99.90;;;;;;4994590;28;19944;-86
2024/04/02 05:08:47;;;;;;;;;;;7.30;99.90;;;;;;4993925;28;19929;-86
2024/04/02 05:11:12;;;;;;;;;;;7.30;99.90;;;;;;4995700;28;21356;-85
2024/04/02 05:13:40;;;;;;;;;;;7.40;99.90;;;;;;4992781;28;20293;-85
2024/04/02 05:16:06;;;;;;;;;;;7.40;99.90;;;;;;4994600;28;19914;-86
2024/04/02 05:18:34;;;;;;;;;;;7.40;99.90;;;;;;4996846;28;20398;-86
2024/04/02 05:21:00;;;;;;;;;;;7.50;99.90;;;;;;4995722;28;20729;-86
2024/04/02 05:23:29;;;;;;;;;;;7.60;99.90;;;;;;4996807;28;20028;-85
2024/04/02 05:25:58;;;;;;;;;;;7.50;99.90;;;;;;4997422;28;19909;-85
2024/04/02 05:28:23;;;;;;;;;;;7.60;99.90;;;;;;4995626;28;19968;-85
2024/04/02 05:30:49;;;;;;;;;;;7.60;99.90;;;;;;4994668;28;20437;-86
2024/04/02 05:33:14;;;;;;;;;;;7.60;99.90;;;;;;4994738;28;19913;-85
2024/04/02 05:35:40;;;;;;;;;;;7.60;99.90;;;;;;4978368;28;19988;-85
2024/04/02 05:38:06;;;;;;;;;;;7.60;99.90;;;;;;4996184;28;20044;-87
2024/04/02 05:40:32;;;;;;;;;;;7.60;99.90;;;;;;4995569;28;19991;-85
2024/04/02 05:42:58;;;;;;;;;;;7.60;99.90;;;;;;4994106;28;19922;-85
2024/04/02 05:45:24;;;;;;;;;;;7.60;99.90;;;;;;4995186;28;19914;-85
2024/04/02 05:47:49;;;;;;;;;;;7.70;99.90;;;;;;4995878;28;19918;-86
2024/04/02 05:50:15;;;;;;;;;;;7.60;99.90;;;;;;4997549;28;19937;-84
2024/04/02 05:52:41;;;;;;;;;;;7.70;99.90;;;;;;4995953;28;19917;-85
2024/04/02 05:55:07;;;;;;;;;;;7.60;99.90;;;;;;4993068;28;19922;-84
2024/04/02 05:57:32;;;;;;;;;;;7.60;99.90;;;;;;4995855;28;19969;-86
2024/04/02 05:59:58;;;;;;;;;;;7.60;99.90;;;;;;5002184;28;19988;-86
2024/04/02 06:02:23;;;;;;;;;;;7.70;99.90;;;;;;4997526;28;19921;-85
2024/04/02 06:04:49;;;;;;;;;;;7.70;99.90;;;;;;4995704;28;19924;-85
2024/04/02 06:07:14;;;;;;;;;;;7.70;99.90;;;;;;4976169;28;19922;-85
2024/04/02 06:09:40;;;;;;;;;;;7.70;99.90;;;;;;4994580;28;19914;-85
2024/04/02 06:12:06;;;;;;;;;;;7.90;99.90;;;;;;4993772;28;20336;-85
2024/04/02 06:14:32;;;;;;;;;;;7.90;99.90;;;;;;4993392;28;19921;-85
2024/04/02 06:16:58;;;;;;;;;;;8.10;99.90;;;;;;4993446;28;19924;-85
2024/04/02 06:19:23;;;;;;;;;;;8.20;99.90;;;;;;4994598;28;19917;-86
2024/04/02 06:21:49;;;;;;;;;;;8.30;99.90;;;;;;4996286;28;19980;-85
2024/04/02 06:24:14;;;;;;;;;;;8.40;99.90;;;;;;4995649;28;19918;-86
2024/04/02 06:26:40;;;;;;;;;;;8.50;99.90;;;;;;4996110;28;19894;-86
2024/04/02 06:29:05;;;;;;;;;;;8.50;99.90;;;;;;4981983;28;19917;-86
2024/04/02 06:31:31;;;;;;;;;;;8.60;99.90;;;;;;4978679;28;20134;-86
2024/04/02 06:33:57;;;;;;;;;;;8.60;99.90;;;;;;4996085;28;19914;-87
2024/04/02 06:36:26;;;;;;;;;;;8.60;99.90;;;;;;4994676;28;19956;-86
2024/04/02 06:38:51;;;;;;;;;;;8.60;99.90;;;;;;4995550;28;19917;-86
2024/04/02 06:41:17;;;;;;;;;;;8.50;99.90;;;;;;4996406;28;19984;-86
2024/04/02 06:43:42;;;;;;;;;;;8.50;99.90;;;;;;4995601;28;19963;-86
2024/04/02 06:46:08;;;;;;;;;;;8.50;99.90;;;;;;4978187;28;19925;-86
2024/04/02 06:48:33;;;;;;;;;;;8.50;99.90;;;;;;4995218;28;19988;-86
2024/04/02 06:51:00;;;;;;;;;;;8.60;99.90;;;;;;4996609;28;20319;-86
2024/04/02 06:53:26;;;;;;;;;;;8.60;99.90;;;;;;4995893;28;19969;-85
2024/04/02 06:55:51;;;;;;;;;;;8.60;99.90;;;;;;4995261;28;19953;-86
2024/04/02 06:58:17;;;;;;;;;;;8.80;99.90;;;;;;4994457;28;20465;-88
2024/04/02 07:00:44;;;;;;;;;;;8.90;99.90;;;;;;4994138;28;19917;-86
2024/04/02 07:03:14;;;;;;;;;;;9.00;99.90;;;;;;4993476;28;19917;-86
2024/04/02 07:05:39;;;;;;;;;;;9.10;99.90;;;;;;4993562;28;20004;-86
2024/04/02 07:08:05;;;;;;;;;;;9.00;99.90;;;;;;4996330;28;20008;-85
2024/04/02 07:10:30;;;;;;;;;;;9.00;99.90;;;;;;4995310;28;19921;-86
2024/04/02 07:12:55;;;;;;;;;;;9.00;99.90;;;;;;4995682;28;20337;-84
2024/04/02 07:15:21;;;;;;;;;;;9.00;99.90;;;;;;4997852;28;19913;-85
2024/04/02 07:17:47;;;;;;;;;;;9.00;99.90;;;;;;4991398;28;19924;-86
2024/04/02 07:20:12;;;;;;;;;;;9.00;99.90;;;;;;4993317;28;20668;-88
2024/04/02 07:22:39;;;;;;;;;;;9.00;99.90;;;;;;4994361;28;19936;-86
2024/04/02 07:25:05;;;;;;;;;;;9.00;99.90;;;;;;4995756;28;19921;-86
2024/04/02 07:27:30;;;;;;;;;;;9.20;99.90;;;;;;4996944;28;20433;-88
2024/04/02 07:29:56;;;;;;;;;;;9.20;99.90;;;;;;4992983;28;20321;-86
2024/04/02 07:32:21;;;;;;;;;;;9.20;99.90;;;;;;4998008;28;19924;-86
2024/04/02 07:34:47;;;;;;;;;;;9.10;99.90;;;;;;4993684;28;19944;-86
2024/04/02 07:37:12;;;;;;;;;;;9.20;99.90;;;;;;4993459;28;19921;-86
2024/04/02 07:39:38;;;;;;;;;;;9.20;99.90;;;;;;4992662;28;20457;-86
2024/04/02 07:42:03;;;;;;;;;;;9.30;99.90;;;;;;4994471;28;19910;-86
2024/04/02 07:44:29;;;;;;;;;;;9.40;99.90;;;;;;4995036;28;20012;-87
2024/04/02 07:46:54;;;;;;;;;;;9.50;99.90;;;;;;4993560;28;19910;-86
2024/04/02 07:49:20;;;;;;;;;;;9.50;99.90;;;;;;4999162;28;19989;-86
2024/04/02 07:51:45;;;;;;;;;;;9.60;99.90;;;;;;4997841;28;20678;-86
2024/04/02 07:54:10;;;;;;;;;;;9.60;99.90;;;;;;4977536;28;19940;-87
2024/04/02 07:56:36;;;;;;;;;;;9.60;99.90;;;;;;4998355;28;19916;-87
2024/04/02 07:59:03;;;;;;;;;;;9.70;99.90;;;;;;4997955;28;19917;-86
2024/04/02 08:01:29;;;;;;;;;;;9.80;99.90;;;;;;4994702;28;19922;-86
2024/04/02 08:03:54;;;;;;;;;;;9.90;99.90;;;;;;4994658;28;19897;-87
2024/04/02 08:06:20;;;;;;;;;;;10.20;99.90;;;;;;4994104;28;19917;-87
2024/04/02 08:08:45;;;;;;;;;;;10.20;99.90;;;;;;4995206;28;19960;-87
2024/04/02 08:11:11;;;;;;;;;;;10.30;99.90;;;;;;4995494;28;20293;-87
2024/04/02 08:13:37;;;;;;;;;;;10.20;99.90;;;;;;4991731;28;20004;-87
2024/04/02 08:16:03;;;;;;;;;;;10.10;99.90;;;;;;4992747;28;19917;-85
2024/04/02 08:18:29;;;;;;;;;;;10.20;99.90;;;;;;4992285;28;20401;-85
2024/04/02 08:20:54;;;;;;;;;;;10.20;99.90;;;;;;4993545;28;19909;-86
2024/04/02 08:23:19;;;;;;;;;;;10.30;99.90;;;;;;4995195;28;21285;-86
2024/04/02 08:25:45;;;;;;;;;;;10.30;99.90;;;;;;4993081;28;19917;-86
2024/04/02 08:28:10;;;;;;;;;;;10.30;99.90;;;;;;4993812;28;20454;-87
2024/04/02 08:30:36;;;;;;;;;;;10.30;99.90;;;;;;4993574;28;19921;-87
2024/04/02 08:33:01;;;;;;;;;;;10.20;99.90;;;;;;4990718;28;19917;-87
2024/04/02 08:35:27;;;;;;;;;;;10.10;99.90;;;;;;4991717;28;20216;-87
2024/04/02 08:37:52;;;;;;;;;;;10.10;99.90;;;;;;4993318;28;19917;-86
2024/04/02 08:40:18;;;;;;;;;;;10.00;99.90;;;;;;4991811;28;19921;-87
2024/04/02 08:42:45;;;;;;;;;;;10.00;99.90;;;;;;4994067;28;19963;-86
2024/04/02 08:45:13;;;;;;;;;;;10.10;99.90;;;;;;4992766;28;19924;-86
2024/04/02 08:47:38;;;;;;;;;;;10.20;99.90;;;;;;4984006;28;19917;-86
2024/04/02 08:50:04;;;;;;;;;;;10.20;99.90;;;;;;4982235;28;19917;-87
2024/04/02 08:52:30;;;;;;;;;;;10.10;99.90;;;;;;4984223;28;19921;-86
2024/04/02 08:54:55;;;;;;;;;;;10.00;99.90;;;;;;4995939;28;19949;-86
2024/04/02 08:57:21;;;;;;;;;;;9.90;99.90;;;;;;4994811;28;19921;-86
2024/04/02 08:59:48;;;;;;;;;;;9.80;99.90;;;;;;4992913;28;20400;-86
2024/04/02 09:02:14;;;;;;;;;;;9.80;99.90;;;;;;4992423;28;21349;-86
2024/04/02 09:04:40;;;;;;;;;;;9.80;99.90;;;;;;4994432;28;19920;-87
2024/04/02 09:07:05;;;;;;;;;;;9.70;99.90;;;;;;4994382;28;19913;-87
2024/04/02 09:09:31;;;;;;;;;;;9.80;99.90;;;;;;4994481;28;20000;-88
2024/04/02 09:11:56;;;;;;;;;;;9.80;99.90;;;;;;4992796;28;19967;-86
2024/04/02 09:14:22;;;;;;;;;;;9.80;99.90;;;;;;4992536;28;19917;-86
2024/04/02 09:16:48;;;;;;;;;;;9.90;99.90;;;;;;4973888;28;19956;-86
2024/04/02 09:19:13;;;;;;;;;;;10.20;99.90;;;;;;4975951;28;20701;-86
2024/04/02 09:21:39;;;;;;;;;;;10.40;99.90;;;;;;4993678;28;19913;-85
2024/04/02 09:24:07;;;;;;;;;;;10.60;99.90;;;;;;4993753;28;20064;-87
2024/04/02 09:26:32;;;;;;;;;;;11.00;99.90;;;;;;4991579;28;19914;-87
2024/04/02 09:28:58;;;;;;;;;;;11.20;99.90;;;;;;4994257;28;19925;-88
2024/04/02 09:31:24;;;;;;;;;;;11.40;99.90;;;;;;4993565;28;19924;-87
2024/04/02 09:33:50;;;;;;;;;;;11.40;99.90;;;;;;4993780;28;19925;-88
2024/04/02 09:36:17;;;;;;;;;;;11.40;99.90;;;;;;4992243;28;19917;-88
2024/04/02 09:38:42;;;;;;;;;;;11.40;99.90;;;;;;4975592;28;19971;-88
2024/04/02 09:41:08;;;;;;;;;;;11.30;99.90;;;;;;4995020;28;19905;-87
2024/04/02 09:43:35;;;;;;;;;;;11.10;99.90;;;;;;4993887;28;20285;-88
2024/04/02 09:46:01;;;;;;;;;;;11.00;99.90;;;;;;4993632;28;19968;-87
2024/04/02 09:48:31;;;;;;;;;;;11.10;99.90;;;;;;4995149;28;19914;-87
2024/04/02 09:50:57;;;;;;;;;;;11.20;99.90;;;;;;4992341;28;20540;-87
2024/04/02 09:53:24;;;;;;;;;;;11.30;99.90;;;;;;4993021;28;19913;-87
2024/04/02 09:55:50;;;;;;;;;;;11.30;99.90;;;;;;4995179;28;19924;-87
2024/04/02 09:58:16;;;;;;;;;;;11.20;99.90;;;;;;4993994;28;19914;-87
2024/04/02 10:00:46;;;;;;;;;;;11.20;99.90;;;;;;4993420;28;19921;-87
2024/04/02 10:03:12;;;;;;;;;;;11.10;99.90;;;;;;4999219;28;19968;-85
2024/04/02 10:05:37;;;;;;;;;;;11.20;99.90;;;;;;5002489;28;19917;-84
2024/04/02 10:08:05;;;;;;;;;;;11.20;99.90;;;;;;4998180;28;19916;-87
2024/04/02 10:10:30;;;;;;;;;;;11.40;99.90;;;;;;4980170;28;19991;-88
2024/04/02 10:12:56;;;;;;;;;;;11.50;99.90;;;;;;4998334;28;19917;-87
2024/04/02 10:15:22;;;;;;;;;;;11.70;99.90;;;;;;4997464;28;19913;-88
2024/04/02 10:17:55;;;;;;;;;;;11.90;99.90;;;;;;4997784;28;20078;-88
2024/04/02 10:20:25;;;;;;;;;;;12.00;99.90;;;;;;4998490;28;19967;-88
2024/04/02 10:22:54;;;;;;;;;;;12.10;99.90;;;;;;4979774;28;20004;-88
2024/04/02 10:25:20;;;;;;;;;;;12.10;99.90;;;;;;4994938;28;21668;-87
2024/04/02 10:27:49;;;;;;;;;;;11.90;99.90;;;;;;4996700;28;19913;-87
2024/04/02 10:32:34;;;;;;;3.80;1.00;;;11.60;99.90;;;;;;5076337;27;20411;-86
2024/04/02 10:34:59;;;;;;;7.30;2.07;;;11.70;99.90;;;;;;5077794;28;20043;-84
2024/04/02 10:37:26;;;;;;;5.37;1.50;;;11.80;99.90;;;;;;5071031;28;20033;-85
2024/04/02 10:39:52;;;;;;;4.65;0.98;;;12.00;99.90;;;;;;5069983;28;20036;-85
2024/04/02 10:42:18;;;;;;;2.05;0.88;;;12.00;99.90;;;;;;5069344;28;20109;-85
2024/04/02 10:44:43;;;;;;;2.28;1.00;;;11.80;99.90;;;;;;5069636;28;20028;-84
2024/04/02 10:47:16;;;;;;;2.53;1.00;;;11.70;99.90;;;;;;5070295;28;20028;-82
2024/04/02 10:49:47;;;;;;;2.33;1.20;;;11.60;99.90;;;;;;5069492;28;20026;-85
2024/04/02 10:52:15;;;;;;;5.93;1.33;;;11.50;99.90;;;;;;5073040;28;20036;-83
2024/04/02 10:54:41;;;;;;;4.22;1.25;;;11.50;99.90;;;;;;5074585;28;20154;-83
2024/04/02 10:57:07;;;;;;;3.47;1.00;;;11.50;99.90;;;;;;5074397;28;20143;-83
2024/04/02 10:59:38;;;;;;;3.47;1.20;;;11.60;99.90;;;;;;5071681;28;20032;-83
2024/04/02 11:02:19;;;;;;;4.30;1.10;;;11.90;99.90;;;;;;5072292;28;20036;-83
2024/04/02 11:04:48;;;;;;;5.35;1.48;;;12.30;99.90;;;;;;5071555;28;20028;-83
2024/04/02 11:07:13;;;;;;;4.13;1.20;;;12.50;99.90;;;;;;5070395;28;20029;-84
2024/04/02 11:09:40;;;;;;;4.00;1.02;;;12.70;99.90;;;;;;5069059;28;20028;-82
2024/04/02 11:12:09;;;;;;;3.42;1.00;;;13.00;99.90;;;;;;5071813;28;20048;-82
2024/04/02 11:14:38;;;;;;;4.05;1.50;;;13.20;99.90;;;;;;5073159;28;20127;-85
2024/04/02 11:17:05;;;;;;;2.63;1.05;;;13.30;99.90;;;;;;5068506;28;20035;-85
2024/04/02 11:19:31;;;;;;;2.55;1.10;;;13.30;99.90;;;;;;5071233;28;20037;-84
2024/04/02 11:24:57;;;;;;;3.55;1.02;;;13.80;99.90;;;;;;5069233;28;20546;-84
2024/04/02 11:27:25;;;;;;;2.75;1.17;;;13.90;99.90;;;;;;5068585;28;20033;-83
2024/04/02 11:29:50;;;;;;;4.68;0.93;;;14.00;99.90;;;;;;5070008;28;20491;-85
2024/04/02 11:32:16;;;;;;;4.28;1.00;;;14.10;99.90;;;;;;5069347;28;20104;-84
2024/04/02 11:34:42;;;;;;;3.97;1.58;;;14.20;99.90;;;;;;5069591;28;20034;-85
2024/04/02 11:37:08;;;;;;;8.30;1.20;;;14.10;99.90;;;;;;5066538;28;20032;-85
2024/04/02 11:39:34;;;;;;;1.85;0.90;;;14.00;99.90;;;;;;5067128;28;20028;-85
2024/04/02 11:42:00;;;;;;;4.53;1.10;;;14.20;99.90;;;;;;5065704;28;20111;-85
2024/04/02 11:44:25;;;;;;;3.83;1.08;;;14.10;99.90;;;;;;5055583;28;20025;-85
2024/04/02 11:46:51;;;;;;;5.72;1.10;;;14.20;99.90;;;;;;5051938;28;20436;-84
2024/04/02 11:49:16;;;;;;;4.07;0.95;;;14.10;99.90;;;;;;5055625;28;20031;-85
2024/04/02 11:51:43;;;;;;;4.78;1.10;;;14.10;99.90;;;;;;5056018;28;20037;-85
2024/04/02 11:54:09;;;;;;;2.05;0.88;;;13.90;99.90;;;;;;5055019;28;20389;-84
2024/04/02 12:02:03;;;;;;;2.13;0.88;;;13.90;99.90;;;;;;5054774;28;20495;-85
2024/04/02 12:04:28;;;;;;;3.47;0.80;;;14.00;99.90;;;;;;5055695;28;20024;-85
2024/04/02 12:06:57;;;;;;;2.05;0.80;;;14.20;99.90;;;;;;5054702;28;20068;-85
2024/04/02 12:09:22;;;;;;;2.65;1.00;;;14.10;99.90;;;;;;5055172;28;20025;-86
2024/04/02 12:11:48;;;;;;;6.53;1.10;;;14.10;99.90;;;;;;5055650;28;20976;-86
2024/04/02 12:14:14;;;;;;;3.00;0.90;;;14.00;99.90;;;;;;5055380;28;20393;-85
2024/04/02 12:16:39;;;;;;;3.88;0.98;;;13.80;99.90;;;;;;5055380;28;20664;-85
2024/04/02 12:19:06;;;;;;;2.78;0.75;;;13.80;99.90;;;;;;5054734;28;20661;-85
2024/04/02 12:21:31;;;;;;;3.15;0.75;;;13.60;99.90;;;;;;5055595;28;20481;-86
2024/04/02 12:23:57;;;;;;;2.78;0.80;;;13.80;99.90;;;;;;5055456;28;20027;-85
2024/04/02 12:26:22;;;;;;;4.00;0.70;;;14.20;99.90;;;;;;5054746;28;20052;-84
2024/04/02 12:28:48;;;;;;;2.85;0.90;;;14.20;99.90;;;;;;5050738;28;20486;-86
2024/04/02 12:31:13;;;;;;;5.30;0.80;;;14.10;99.90;;;;;;5053541;28;20036;-85
2024/04/02 12:33:39;;;;;;;3.05;0.85;;;14.10;99.90;;;;;;5055245;28;20024;-85
2024/04/02 12:36:06;;;;;;;3.13;1.10;;;14.10;99.90;;;;;;5053732;28;20094;-86
2024/04/02 12:38:32;;;;;;;3.95;1.05;;;14.00;99.90;;;;;;5052108;28;20044;-87
2024/04/02 12:41:04;;;;;;;2.03;0.80;;;13.80;99.90;;;;;;5051317;28;20035;-84
2024/04/02 12:43:29;;;;;;;2.30;0.80;;;13.50;99.90;;;;;;5054149;28;21260;-86
2024/04/02 12:45:55;;;;;;;3.33;0.70;;;13.40;99.90;;;;;;5053499;28;20047;-86
2024/04/02 12:48:21;;;;;;;3.92;1.10;;;13.40;99.90;;;;;;5054032;28;20037;-85
2024/04/02 12:50:54;;;;;;;3.75;1.05;;;13.40;99.90;;;;;;5053758;28;20036;-86
2024/04/02 12:53:20;;;;;;;2.42;1.17;;;13.60;99.90;;;;;;5053515;28;20036;-86
2024/04/02 12:55:47;;;;;;;3.05;0.90;;;13.90;99.90;;;;;;5053018;28;20021;-85
2024/04/02 12:58:12;;;;;;;3.17;0.80;;;13.90;99.90;;;;;;5054423;28;20028;-86
2024/04/02 13:00:38;;;;;;;2.47;0.80;;;13.90;99.90;;;;;;5054712;28;20036;-85
2024/04/02 13:03:04;;;;;;;2.05;0.80;;;13.90;99.90;;;;;;5052537;28;20041;-85
2024/04/02 13:05:39;;;;;;;2.72;0.80;;;13.80;99.90;;;;;;5053094;28;20087;-85
2024/04/02 13:08:06;;;;;;;1.95;0.73;;;13.70;99.90;;;;;;5053188;28;20124;-85
2024/04/02 13:10:46;;;;;;;1.48;0.68;;;13.80;99.90;;;;;;5054900;28;20037;-85
2024/04/02 13:13:12;;;;;;;1.20;0.70;;;14.00;99.90;;;;;;5055108;28;20055;-85
2024/04/02 13:15:37;;;;;;;1.13;0.60;;;14.30;99.90;;;;;;5051861;28;20029;-85
2024/04/02 13:18:04;;;;;;;1.60;0.75;;;14.70;99.90;;;;;;5054271;28;20041;-85
2024/04/02 13:20:29;;;;;;;1.45;0.60;;;14.60;99.90;;;;;;5051904;28;20029;-85
2024/04/02 13:22:56;;;;;;;0.82;0.50;;;14.50;99.90;;;;;;5053849;28;20033;-87
2024/04/02 13:25:28;;;;;;;2.10;0.93;;;14.70;99.90;;;;;;5052877;28;20100;-88
2024/04/02 13:27:54;;;;;;;4.35;0.93;;;15.00;99.90;;;;;;5053746;28;20505;-87
2024/04/02 13:30:25;;;;;;;1.30;0.60;;;15.10;99.90;;;;;;5055031;28;20041;-86
2024/04/02 13:32:51;;;;;;;1.65;0.70;;;15.00;99.90;;;;;;5054026;28;20024;-85
2024/04/02 13:35:18;;;;;;;3.28;0.65;;;15.00;99.90;;;;;;5050533;28;20694;-84
2024/04/02 13:37:47;;;;;;;0.90;0.60;;;14.90;99.90;;;;;;5052263;28;20412;-85
2024/04/02 13:40:14;;;;;;;2.20;0.70;;;14.60;99.90;;;;;;5051895;28;20503;-87
2024/04/02 13:42:41;;;;;;;4.85;0.63;;;14.20;99.90;;;;;;5054703;28;20029;-86
2024/04/02 13:45:10;;;;;;;1.95;0.60;;;14.10;99.90;;;;;;5053211;28;20985;-86
2024/04/02 13:47:37;;;;;;;1.98;0.60;;;13.80;99.90;;;;;;5056119;28;20089;-87
2024/04/02 13:50:03;;;;;;;1.15;0.57;;;13.70;99.90;;;;;;5053573;28;20017;-88
2024/04/02 13:52:33;;;;;;;1.95;0.77;;;13.60;99.90;;;;;;5052644;28;20048;-86
2024/04/02 13:54:59;;;;;;;1.73;0.55;;;13.90;99.90;;;;;;5052478;28;20063;-86
2024/04/02 13:57:25;;;;;;;1.33;0.60;;;14.10;99.90;;;;;;5054504;28;20029;-85
2024/04/02 13:59:52;;;;;;;3.17;0.80;;;14.10;99.90;;;;;;5053300;28;20031;-87
2024/04/02 14:02:21;;;;;;;1.33;0.60;;;14.00;99.90;;;;;;5051693;28;20024;-86
2024/04/02 14:04:46;;;;;;;3.17;0.70;;;13.80;99.90;;;;;;5050347;28;20037;-86